createdAt,value
2022-12-15T07:41:54.016Z,8.28
2022-12-15T07:42:58.671Z,8.75
2022-12-15T07:44:03.769Z,8.86
2022-12-15T07:45:07.124Z,8.73
2022-12-15T07:46:10.927Z,8.81
2022-12-15T07:47:14.244Z,8.95
2022-12-15T07:48:17.445Z,8.97
2022-12-15T07:49:19.980Z,8.88
2022-12-15T07:50:25.395Z,8.46
2022-12-15T07:51:28.910Z,9.06
2022-12-15T07:52:32.291Z,8.84
2022-12-15T07:55:13.002Z,8.07
2022-12-15T07:56:18.364Z,8.68
2022-12-15T07:57:22.034Z,8.92
2022-12-15T07:58:29.367Z,8.72
2022-12-15T07:59:34.094Z,8.24
2022-12-15T08:00:37.792Z,9.12
2022-12-15T08:01:44.973Z,8.79
2022-12-15T08:02:50.116Z,8.92
2022-12-15T08:03:53.724Z,8.71
2022-12-15T08:04:57.393Z,8.96
2022-12-15T08:06:10.884Z,8.34
2022-12-15T08:07:14.365Z,8.30
2022-12-15T08:08:20.030Z,8.70
2022-12-15T08:09:23.324Z,8.43
2022-12-15T08:10:26.085Z,8.14
2022-12-15T08:11:36.506Z,8.63
2022-12-15T08:12:41.136Z,8.42
2022-12-15T08:14:04.137Z,8.64
2022-12-15T08:14:51.175Z,8.57
2022-12-15T08:15:56.861Z,9.11
2022-12-15T08:17:02.597Z,8.99
2022-12-15T08:18:06.841Z,9.07
2022-12-15T08:19:13.082Z,9.11
2022-12-15T08:20:19.659Z,9.17
2022-12-15T08:21:22.944Z,8.53
2022-12-15T08:22:26.542Z,8.52
2022-12-15T08:23:30.324Z,8.62
2022-12-15T08:24:33.082Z,8.25
2022-12-15T08:25:36.950Z,9.11
2022-12-15T08:26:41.812Z,9.11
2022-12-15T08:27:45.669Z,8.79
2022-12-15T08:28:49.598Z,8.91
2022-12-15T08:29:54.415Z,9.05
2022-12-15T08:31:08.816Z,9.23
2022-12-15T08:32:13.427Z,9.46
2022-12-15T08:33:15.923Z,9.26
2022-12-15T08:34:19.253Z,8.69
2022-12-15T08:35:54.513Z,9.13
2022-12-15T08:36:28.412Z,8.51
2022-12-15T08:37:34.226Z,10.01
2022-12-15T08:38:41.699Z,9.95
2022-12-15T08:39:45.160Z,10.29
2022-12-15T08:40:50.136Z,10.30
2022-12-15T08:41:53.974Z,10.91
2022-12-15T08:42:59.114Z,9.22
2022-12-15T08:44:02.825Z,9.80
2022-12-15T08:45:07.646Z,8.86
2022-12-15T08:46:10.681Z,8.97
2022-12-15T08:47:13.224Z,8.20
2022-12-15T08:48:18.062Z,8.13
2022-12-15T08:49:24.682Z,8.07
2022-12-15T08:50:27.734Z,8.06
2022-12-15T08:51:35.475Z,8.22
2022-12-15T08:52:41.222Z,8.22
2022-12-15T08:53:46.935Z,8.48
2022-12-15T08:54:49.844Z,9.07
2022-12-15T08:55:54.297Z,8.90
2022-12-15T08:56:57.821Z,8.79
2022-12-15T08:58:02.151Z,8.79
2022-12-15T08:59:05.511Z,8.67
2022-12-15T09:00:11.027Z,8.31
2022-12-15T09:01:23.474Z,8.23
2022-12-15T09:02:27.152Z,8.61
2022-12-15T09:03:31.577Z,8.12
2022-12-15T09:04:34.877Z,8.11
2022-12-15T09:05:40.364Z,7.74
2022-12-15T09:06:50.569Z,7.39
2022-12-15T09:08:01.677Z,7.88
2022-12-15T09:09:05.830Z,7.62
2022-12-15T09:10:09.933Z,7.97
2022-12-15T09:11:13.020Z,7.25
2022-12-15T09:12:17.387Z,7.50
2022-12-15T09:13:22.572Z,7.09
2022-12-15T09:14:29.495Z,7.68
2022-12-15T09:16:06.982Z,7.28
2022-12-15T09:16:37.057Z,7.18
2022-12-15T09:17:40.655Z,7.45
2022-12-15T09:18:53.236Z,6.83
2022-12-15T09:19:57.720Z,6.92
2022-12-15T09:21:09.533Z,7.56
2022-12-15T09:22:12.868Z,6.68
2022-12-15T09:23:17.380Z,7.00
2022-12-15T09:24:30.569Z,7.01
2022-12-15T09:25:24.810Z,7.32
2022-12-15T09:26:29.787Z,7.17
2022-12-15T09:27:33.797Z,7.36
2022-12-15T09:28:39.805Z,6.77
2022-12-15T09:29:42.695Z,6.77
2022-12-15T09:30:47.194Z,7.08
2022-12-15T09:31:49.858Z,7.27
2022-12-15T09:32:53.692Z,7.37
2022-12-15T09:34:01.059Z,6.88
2022-12-15T09:35:04.994Z,7.07
2022-12-15T09:36:11.519Z,7.33
2022-12-15T09:37:15.068Z,7.36
2022-12-15T09:38:18.738Z,7.05
2022-12-15T09:39:22.396Z,6.87
2022-12-15T09:40:25.800Z,7.41
2022-12-15T09:41:31.709Z,7.03
2022-12-15T09:42:36.289Z,7.43
2022-12-15T09:43:47.478Z,7.21
2022-12-15T09:47:22.443Z,6.69
2022-12-15T09:48:29.877Z,7.73
2022-12-15T09:49:45.853Z,7.48
2022-12-15T09:50:54.424Z,7.13
2022-12-15T09:52:16.468Z,6.98
2022-12-15T09:53:53.542Z,7.42
2022-12-15T09:54:33.343Z,7.53
2022-12-15T09:55:37.109Z,7.93
2022-12-15T09:58:14.248Z,7.47
2022-12-15T09:59:36.862Z,7.99
2022-12-15T10:00:59.200Z,7.66
2022-12-15T10:02:18.439Z,7.67
2022-12-15T10:03:44.914Z,7.96
2022-12-15T10:05:06.532Z,7.91
2022-12-15T10:06:50.757Z,8.03
2022-12-15T10:07:54.575Z,7.30
2022-12-15T10:09:03.413Z,8.41
2022-12-15T10:10:13.975Z,7.56
2022-12-15T10:11:50.384Z,8.15
2022-12-15T10:13:01.306Z,7.86
2022-12-15T10:14:34.881Z,8.04
2022-12-15T10:15:59.625Z,7.70
2022-12-15T10:17:16.358Z,7.97
2022-12-15T10:18:24.541Z,8.23
2022-12-15T10:19:49.944Z,7.66
2022-12-15T10:20:56.072Z,8.22
2022-12-15T10:21:59.934Z,8.49
2022-12-15T10:23:10.621Z,7.96
2022-12-15T10:26:16.996Z,8.69
2022-12-15T10:27:37.873Z,8.63
2022-12-15T10:29:07.374Z,8.35
2022-12-15T10:30:14.345Z,8.43
2022-12-15T10:31:29.045Z,8.32
2022-12-15T10:32:42.643Z,8.33
2022-12-15T10:33:47.087Z,8.21
2022-12-15T10:34:48.161Z,8.68
2022-12-15T10:35:57.011Z,9.05
2022-12-15T10:37:01.017Z,8.41
2022-12-15T10:38:11.433Z,8.62
2022-12-15T10:39:18.387Z,8.84
2022-12-15T10:40:24.663Z,8.54
2022-12-15T10:41:30.814Z,8.61
2022-12-15T10:42:40.261Z,8.33
2022-12-15T10:44:56.579Z,8.29
2022-12-15T10:46:23.370Z,8.24
2022-12-15T10:47:32.631Z,8.23
2022-12-15T10:48:37.532Z,8.33
2022-12-15T10:49:42.970Z,8.27
2022-12-15T10:50:50.210Z,8.28
2022-12-15T10:51:59.999Z,7.96
2022-12-15T10:53:11.234Z,7.89
2022-12-15T10:54:18.000Z,8.13
2022-12-15T10:55:40.197Z,8.22
2022-12-15T10:56:57.691Z,7.67
2022-12-15T10:58:04.651Z,7.95
2022-12-15T10:59:23.913Z,7.64
2022-12-15T11:00:30.454Z,8.34
2022-12-15T11:01:35.916Z,8.17
2022-12-15T11:02:42.811Z,7.29
2022-12-15T11:03:46.242Z,7.74
2022-12-15T11:04:59.036Z,7.69
2022-12-15T11:06:01.730Z,7.47
2022-12-15T11:07:10.776Z,7.54
2022-12-15T11:08:17.898Z,7.33
2022-12-15T11:09:27.795Z,7.21
2022-12-15T11:10:34.561Z,7.44
2022-12-15T15:03:10.726Z,8.44
2022-12-15T16:51:13.071Z,9.28
2022-12-15T16:52:24.119Z,9.58
2022-12-15T16:53:34.045Z,10.37
2022-12-15T16:54:39.942Z,9.67
2022-12-15T16:55:44.118Z,9.79
2022-12-15T16:56:47.804Z,9.84
2022-12-15T16:57:56.399Z,10.16
2022-12-15T16:59:30.905Z,9.92
2022-12-15T17:00:10.259Z,9.58
2022-12-15T17:01:13.576Z,10.13
2022-12-15T17:02:32.443Z,9.99
2022-12-15T17:03:36.223Z,10.18
2022-12-15T17:04:39.917Z,10.12
2022-12-15T17:05:47.957Z,10.52
2022-12-15T17:06:53.287Z,10.92
2022-12-15T17:07:59.183Z,10.82
2022-12-15T17:09:03.906Z,10.67
2022-12-15T17:10:08.120Z,10.27
2022-12-15T17:11:24.023Z,10.46
2022-12-15T17:12:28.449Z,10.19
2022-12-15T17:13:41.932Z,10.79
2022-12-15T17:14:40.743Z,10.39
2022-12-15T17:15:45.102Z,10.73
2022-12-15T17:16:48.753Z,10.55
2022-12-15T17:17:54.852Z,10.57
2022-12-15T17:20:33.205Z,10.97
2022-12-15T17:21:30.884Z,11.00
2022-12-15T17:22:33.830Z,10.92
2022-12-15T17:23:37.835Z,10.76
2022-12-15T17:24:45.161Z,10.98
2022-12-15T17:26:19.963Z,10.10
2022-12-15T17:26:58.976Z,10.90
2022-12-15T17:28:02.548Z,10.64
2022-12-15T17:29:25.133Z,10.61
2022-12-15T17:30:29.913Z,10.23
2022-12-15T17:31:36.444Z,9.77
2022-12-15T17:32:40.900Z,10.06
2022-12-15T17:33:44.284Z,10.46
2022-12-15T17:34:48.097Z,10.13
2022-12-15T17:35:58.437Z,9.75
2022-12-15T17:37:06.848Z,10.75
2022-12-15T17:38:15.152Z,9.51
2022-12-15T17:39:21.880Z,9.66
2022-12-15T17:40:25.789Z,9.99
2022-12-15T17:41:57.903Z,10.01
2022-12-15T17:42:33.601Z,10.28
2022-12-15T17:43:36.976Z,10.40
2022-12-15T17:44:41.969Z,10.31
2022-12-15T17:45:46.068Z,10.29
2022-12-15T17:46:50.740Z,10.00
2022-12-15T17:47:54.760Z,10.34
2022-12-15T17:48:59.920Z,10.39
2022-12-15T17:50:03.524Z,9.94
2022-12-15T17:51:18.169Z,10.83
2022-12-15T17:52:29.445Z,10.29
2022-12-15T17:53:33.740Z,10.12
2022-12-15T17:54:38.075Z,9.86
2022-12-15T17:55:41.784Z,9.76
2022-12-15T17:56:47.737Z,9.85
2022-12-15T17:57:52.091Z,10.54
2022-12-15T17:58:56.638Z,10.04
2022-12-15T18:00:00.921Z,10.91
2022-12-15T18:01:03.847Z,10.15
2022-12-15T18:02:10.132Z,10.76
2022-12-15T18:03:16.043Z,10.29
2022-12-15T18:04:19.953Z,10.63
2022-12-15T18:05:26.483Z,10.02
2022-12-15T18:06:30.095Z,11.07
2022-12-15T18:07:35.460Z,9.80
2022-12-15T18:08:38.480Z,10.76
2022-12-15T18:09:44.773Z,10.65
2022-12-15T18:10:51.172Z,10.24
2022-12-15T18:11:57.382Z,10.46
2022-12-15T18:13:01.304Z,10.39
2022-12-15T18:14:08.060Z,11.09
2022-12-15T18:15:15.550Z,10.56
2022-12-15T18:16:18.571Z,10.57
2022-12-15T18:17:22.639Z,10.51
2022-12-15T18:18:26.623Z,9.69
2022-12-15T18:19:34.853Z,10.27
2022-12-15T18:20:37.463Z,10.53
2022-12-15T18:21:42.819Z,10.67
2022-12-15T18:22:48.552Z,9.79
2022-12-15T18:23:51.938Z,9.94
2022-12-15T18:24:55.481Z,10.59
2022-12-15T18:26:03.135Z,10.56
2022-12-15T18:27:19.448Z,10.08
2022-12-15T18:28:28.978Z,10.15
2022-12-15T18:29:32.350Z,10.59
2022-12-15T18:30:37.629Z,10.56
2022-12-15T18:31:42.377Z,10.53
2022-12-15T18:32:48.476Z,10.44
2022-12-15T18:33:54.987Z,10.77
2022-12-15T18:35:02.661Z,9.89
2022-12-15T18:36:08.151Z,9.98
2022-12-15T18:38:30.968Z,10.72
2022-12-15T18:39:34.813Z,10.17
2022-12-15T18:40:39.369Z,10.26
2022-12-15T18:41:42.906Z,10.61
2022-12-15T18:42:47.633Z,10.45
2022-12-15T18:43:51.521Z,10.47
2022-12-15T18:44:56.990Z,10.01
2022-12-15T18:46:01.577Z,9.72
2022-12-15T18:47:07.783Z,10.27
2022-12-15T18:48:17.865Z,10.02
2022-12-15T18:49:22.278Z,10.49
2022-12-15T18:50:26.862Z,10.27
2022-12-15T18:51:30.850Z,10.62
2022-12-15T18:52:35.098Z,9.78
2022-12-15T18:53:40.614Z,9.84
2022-12-15T18:54:47.426Z,9.69
2022-12-15T18:55:50.917Z,10.19
2022-12-15T18:56:55.516Z,9.94
2022-12-15T18:58:01.062Z,10.65
2022-12-15T18:59:08.311Z,10.59
2022-12-15T19:00:19.646Z,10.27
2022-12-15T19:01:23.263Z,10.07
2022-12-15T19:02:26.982Z,10.15
2022-12-15T19:03:32.555Z,10.51
2022-12-15T19:04:36.194Z,9.88
2022-12-15T19:05:39.763Z,10.19
2022-12-15T19:06:43.966Z,10.24
2022-12-15T19:07:47.791Z,9.80
2022-12-15T19:08:52.197Z,9.98
2022-12-15T19:09:55.746Z,10.58
2022-12-15T19:11:17.316Z,10.78
2022-12-15T19:12:21.004Z,9.71
2022-12-15T19:13:27.187Z,10.29
2022-12-15T19:14:43.433Z,9.88
2022-12-15T19:15:48.368Z,10.00
2022-12-15T19:17:11.351Z,11.15
2022-12-15T19:18:35.419Z,10.63
2022-12-15T19:19:57.796Z,10.90
2022-12-15T19:21:25.712Z,10.66
2022-12-15T19:22:30.429Z,11.18
2022-12-15T19:23:33.764Z,10.97
2022-12-15T19:24:55.510Z,11.34
2022-12-15T19:25:58.362Z,11.17
2022-12-15T19:27:02.872Z,11.50
2022-12-15T19:28:10.107Z,11.19
2022-12-15T19:29:18.356Z,11.45
2022-12-15T19:30:21.564Z,11.88
2022-12-15T19:31:26.455Z,11.43
2022-12-15T19:32:30.056Z,11.07
2022-12-15T19:33:34.241Z,11.79
2022-12-15T19:34:38.492Z,11.18
2022-12-15T19:35:47.154Z,11.54
2022-12-15T19:36:50.674Z,12.59
2022-12-15T19:37:57.189Z,11.71
2022-12-15T19:39:00.664Z,12.23
2022-12-15T19:40:06.523Z,11.92
2022-12-15T19:41:13.660Z,11.88
2022-12-15T19:42:21.257Z,12.65
2022-12-15T19:43:25.238Z,11.42
2022-12-15T19:44:29.000Z,12.74
2022-12-15T19:45:32.398Z,12.21
2022-12-15T19:46:36.151Z,12.22
2022-12-15T19:47:39.220Z,11.94
2022-12-15T19:48:46.169Z,12.51
2022-12-15T19:49:49.428Z,12.73
2022-12-15T19:50:55.117Z,12.61
2022-12-15T19:51:58.704Z,13.01
2022-12-15T19:53:05.492Z,12.64
2022-12-15T19:54:17.887Z,13.13
2022-12-15T19:55:26.107Z,13.27
2022-12-15T19:56:29.916Z,13.39
2022-12-15T19:57:36.531Z,13.31
2022-12-15T19:58:39.449Z,12.92
2022-12-15T19:59:45.277Z,12.74
2022-12-15T20:00:50.186Z,13.09
2022-12-15T20:01:53.887Z,12.91
2022-12-15T20:02:59.239Z,12.35
2022-12-15T20:04:02.962Z,13.56
2022-12-15T20:05:06.788Z,13.95
2022-12-15T20:06:19.608Z,13.79
2022-12-15T20:07:28.507Z,13.71
2022-12-15T20:08:38.408Z,13.82
2022-12-15T20:09:41.845Z,12.99
2022-12-15T20:10:48.811Z,13.31
2022-12-15T20:11:52.384Z,13.05
2022-12-15T20:12:55.184Z,13.88
2022-12-15T20:13:59.611Z,13.53
2022-12-15T20:15:14.019Z,12.92
2022-12-15T20:16:21.074Z,13.16
2022-12-15T20:17:26.880Z,12.94
2022-12-15T20:18:29.573Z,12.12
2022-12-15T20:19:38.162Z,12.89
2022-12-15T20:20:46.046Z,12.19
2022-12-15T20:21:50.591Z,12.71
2022-12-15T20:22:56.154Z,12.64
2022-12-15T20:24:09.226Z,12.17
2022-12-15T20:25:17.869Z,12.69
2022-12-15T20:26:30.376Z,12.01
2022-12-15T20:27:33.962Z,12.79
2022-12-15T20:28:37.395Z,12.64
2022-12-15T20:29:41.506Z,12.43
2022-12-15T20:30:45.996Z,13.06
2022-12-15T20:31:50.332Z,12.39
2022-12-15T20:32:55.216Z,13.85
2022-12-15T20:33:59.484Z,12.93
2022-12-15T20:35:03.175Z,13.18
2022-12-15T20:36:16.352Z,12.62
2022-12-15T20:37:27.414Z,12.24
2022-12-15T20:38:33.974Z,13.01
2022-12-15T20:39:38.603Z,12.31
2022-12-15T20:40:43.753Z,12.24
2022-12-15T20:41:49.192Z,12.94
2022-12-15T20:42:54.682Z,12.77
2022-12-15T20:44:00.276Z,11.87
2022-12-15T20:45:03.640Z,11.86
2022-12-15T20:46:11.513Z,11.88
2022-12-15T20:47:26.946Z,11.54
2022-12-15T20:48:32.000Z,12.12
2022-12-15T20:49:36.426Z,11.82
2022-12-15T20:50:43.660Z,11.82
2022-12-15T20:51:48.930Z,12.79
2022-12-15T20:52:54.908Z,11.59
2022-12-15T20:54:01.345Z,12.52
2022-12-15T20:55:08.182Z,11.88
2022-12-15T20:56:12.869Z,12.14
2022-12-15T20:57:16.602Z,12.44
2022-12-15T20:58:20.343Z,11.95
2022-12-15T20:59:24.748Z,11.98
2022-12-15T21:00:29.186Z,12.36
2022-12-15T21:02:50.321Z,11.59
2022-12-15T21:03:56.643Z,12.22
2022-12-15T21:04:59.063Z,12.47
2022-12-15T21:06:04.951Z,12.77
2022-12-15T21:07:12.298Z,12.27
2022-12-15T21:08:21.531Z,11.77
2022-12-15T21:09:25.679Z,11.49
2022-12-15T21:10:28.288Z,12.01
2022-12-15T21:11:33.654Z,12.49
2022-12-15T21:12:37.542Z,11.53
2022-12-15T21:13:41.803Z,12.69
2022-12-15T21:14:45.092Z,12.73
2022-12-15T21:15:50.402Z,12.09
2022-12-15T21:16:53.186Z,12.55
2022-12-15T21:18:29.222Z,11.53
2022-12-15T21:19:23.113Z,12.69
2022-12-15T21:20:14.644Z,11.42
2022-12-15T21:22:32.575Z,11.92
2022-12-15T21:23:39.718Z,11.76
2022-12-15T21:24:41.304Z,12.09
2022-12-15T21:25:44.700Z,12.02
2022-12-15T21:26:50.041Z,12.38
2022-12-15T21:27:54.015Z,12.29
2022-12-15T21:29:01.636Z,12.44
2022-12-15T21:30:08.051Z,12.63
2022-12-15T21:31:11.643Z,12.19
2022-12-15T21:32:14.509Z,12.37
2022-12-15T21:33:18.640Z,12.37
2022-12-15T21:34:23.074Z,11.86
2022-12-15T21:35:30.276Z,12.48
2022-12-15T21:36:31.558Z,12.06
2022-12-15T21:37:34.207Z,11.45
2022-12-15T21:38:40.944Z,11.94
2022-12-15T21:39:44.227Z,11.81
2022-12-15T21:40:48.269Z,11.94
2022-12-15T21:41:52.375Z,12.46
2022-12-15T21:43:02.122Z,11.83
2022-12-15T21:44:13.594Z,11.71
2022-12-15T21:46:34.892Z,12.51
2022-12-15T21:47:57.418Z,12.17
2022-12-15T21:49:15.892Z,12.16
2022-12-15T21:50:20.516Z,11.63
2022-12-15T21:51:26.489Z,11.67
2022-12-15T21:52:28.972Z,12.02
2022-12-15T21:53:32.970Z,12.08
2022-12-15T21:54:37.188Z,12.05
2022-12-15T21:55:40.585Z,11.90
2022-12-15T21:56:47.409Z,12.17
2022-12-15T21:57:51.650Z,12.29
2022-12-15T21:58:57.465Z,12.88
2022-12-15T22:00:03.996Z,12.67
2022-12-15T22:02:29.037Z,12.39
2022-12-15T22:03:34.685Z,12.30
2022-12-15T22:04:39.359Z,13.28
2022-12-15T22:05:42.951Z,13.02
2022-12-15T22:06:50.100Z,13.62
2022-12-15T22:07:51.180Z,13.86
2022-12-15T22:08:58.034Z,14.53
2022-12-15T22:10:01.512Z,13.37
2022-12-15T22:11:08.993Z,13.84
2022-12-15T22:12:24.710Z,13.76
2022-12-15T22:13:31.904Z,13.68
2022-12-15T22:14:37.308Z,13.10
2022-12-15T22:15:41.057Z,13.81
2022-12-15T22:16:46.581Z,14.33
2022-12-15T22:17:54.558Z,14.76
2022-12-15T22:18:58.248Z,12.83
2022-12-15T22:20:02.681Z,13.65
2022-12-15T22:21:08.142Z,13.74
2022-12-15T22:22:14.016Z,13.40
2022-12-15T22:23:27.392Z,13.22
2022-12-15T22:24:30.702Z,13.31
2022-12-15T22:25:34.453Z,13.51
2022-12-15T22:26:41.348Z,12.96
2022-12-15T22:27:46.265Z,13.29
2022-12-15T22:28:51.383Z,13.28
2022-12-15T22:29:58.189Z,13.09
2022-12-15T22:31:05.157Z,13.45
2022-12-15T22:32:14.348Z,12.98
2022-12-15T22:33:22.501Z,13.05
2022-12-15T22:34:27.723Z,12.98
2022-12-15T22:35:33.471Z,13.94
2022-12-15T22:36:36.019Z,12.73
2022-12-15T22:37:42.918Z,13.83
2022-12-15T22:38:46.302Z,13.11
2022-12-15T22:39:49.051Z,13.17
2022-12-15T22:40:56.740Z,13.35
2022-12-15T22:42:00.849Z,13.12
2022-12-15T22:43:06.516Z,14.21
2022-12-15T22:44:24.829Z,14.27
2022-12-15T22:45:28.174Z,14.31
2022-12-15T22:46:32.337Z,13.41
2022-12-15T22:47:38.878Z,13.82
2022-12-15T22:48:45.623Z,14.11
2022-12-15T22:49:49.348Z,14.47
2022-12-15T22:50:53.043Z,14.26
2022-12-15T22:51:58.624Z,13.71
2022-12-15T22:53:02.330Z,13.98
2022-12-15T22:54:12.847Z,14.26
2022-12-15T22:55:18.520Z,14.50
2022-12-15T22:56:28.784Z,14.86
2022-12-15T22:57:33.380Z,14.01
2022-12-15T22:58:43.153Z,13.89
2022-12-15T23:01:00.871Z,13.52
